Felipe Vidal

Recruteur en chef - Espanyol
12 Sept 2027
Dimanche
Processus

Personnalité

Adaptabilité (7) Ambition (13) Controverse (3) Loyauté (12) Pression (5) Professionnalisme (3) Sportivité (6) Tempérament (1)

Profil

Style d'entraînement Démocratique
Diplôme National A
Détermination 10
Gestion des joueurs 11
Motivation 11
Discipline 6
Satisfaction professionnelle
100%
Fatigue
0%
Rôle Recruteur en chef
Salaire 48.6K p/s
Contrat 14.03.2028

Performance

Comportement Bon
Efficacité de l'entraînement
50%
Développement des joueurs
35%
Prévention des blessures
25%
Mise en place tactique
30%

Événements récents

A évalué un joueur 7j
A évalué un joueur 7j
A participé à une réunion de recrutement 7j
A recommandé une cible de transfert 7j
A recommandé une cible de transfert 7j
A recommandé une cible de transfert 7j
A observé un match 14j
A évalué un joueur 14j

Suivi en cours

111
Joueur Club Statut Capacité Confiance Observé Dernière observation Dernier vote
Hirving Lozano San Diego Football Club Actif 138 / 121 40% 1 30.08.2027 -
Rikuto Hirose Kashima Antlers Actif 109 / 134 40% 1 30.08.2027 -
Afriyie Sulemana Hasaacas Actif 100 / 98 40% 1 30.08.2027 -
Alejo Fernández Temperley Actif 81 / 93 40% 1 30.08.2027 -
Marcos López San Martín Actif 117 / 118 40% 1 28.08.2027 -
Facundo Torres Austin FC Actif 140 / 138 40% 2 26.08.2027 -
Gabriel Pirani San Diego Football Club Actif 114 / 131 40% 1 26.08.2027 -
Nahuel Furtado Wanderers Actif 110 / 120 40% 1 25.08.2027 -
David Da Costa Portland Timbers Actif 153 / 142 40% 1 25.08.2027 -
Jefferson Moreno Santa Fe Actif 156 / 151 40% 2 24.08.2027 -
Jonathan Bamba Chicago Fire Actif 116 / 137 40% 1 24.08.2027 -
Marquinhos APOEL Actif 137 / 138 40% 1 23.08.2027 -
Djordje Mihailović Toronto FC Actif 116 / 134 40% 1 23.08.2027 -
Matías Vargas Gimnasia y Esgrima Actif 130 / 124 40% 1 22.08.2027 -
Chris Ramos Botafogo Actif 123 / 130 40% 1 22.08.2027 -
Richard Gonzalez La Equidad Actif 112 / 119 40% 1 21.08.2027 -
Rico Henry Torino Actif 151 / 153 40% 2 20.08.2027 -
Mario Pašalić Atalanta Actif 145 / 155 40% 1 20.08.2027 -
Riccardo Orsolini Bologna Actif 156 / 155 40% 1 19.08.2027 -
Tiago Palacios Estudiantes Actif 125 / 128 40% 1 19.08.2027 -
Sergio Rangel La Equidad Actif 120 / 134 40% 1 18.08.2027 -
Idrissa Touré Monza Actif 146 / 138 40% 1 18.08.2027 -
Enrico Delprato Parma Actif 150 / 143 40% 1 17.08.2027 -
Cristian Shpendi Cesena Actif 132 / 139 40% 1 17.08.2027 -
Alfredo Quintero La Equidad Actif 149 / 127 40% 2 15.08.2027 -
Alberto Reina Oviedo Actif 134 / 137 40% 1 15.08.2027 -
Julien Ponceau Valladolid Actif 121 / 126 40% 1 14.08.2027 -
Sandi Lovrić Hellas Verona Actif 150 / 145 40% 1 14.08.2027 -
Curro Burgos Actif 148 / 130 40% 2 13.08.2027 -
Aleš Matějů Spezia Actif 140 / 121 40% 1 13.08.2027 -
Sergio Ruiz Las Palmas Actif 120 / 126 40% 2 12.08.2027 -
Carlos Neva Albacete Actif 130 / 134 40% 1 12.08.2027 -
Che Adams Torino Actif 139 / 143 40% 2 11.08.2027 -
Viti Rozada Las Palmas Actif 119 / 125 40% 1 11.08.2027 -
Antoine Bernede Hellas Verona Actif 129 / 137 40% 1 10.08.2027 -
Carlos Fernández Oviedo Actif 141 / 125 40% 1 09.08.2027 -
Pablo Galdames Burgos Actif 129 / 136 40% 1 09.08.2027 -
Hidemasa Morita Hull City Actif 135 / 146 40% 2 08.08.2027 -
Sandro Las Palmas Refusé 136 / 134 40% 1 07.08.2027 Plus d'infos
Tatsuhiro Sakamoto Coventry City Actif 121 / 133 40% 1 06.08.2027 -
Enis Bardhi Konyaspor Actif 133 / 139 40% 1 04.08.2027 -
Munir Albacete Actif 120 / 131 40% 3 03.08.2027 -
Jean-Luc Dompé Konyaspor Actif 125 / 119 40% 2 03.08.2027 -
Nacho Vidal Oviedo Actif 119 / 126 40% 2 02.08.2027 -
Gastón Benedetti Estudiantes Actif 139 / 126 40% 2 02.08.2027 -
Joaquín Correa Estudiantes Actif 150 / 125 40% 1 01.08.2027 -
Gift Mabunda Ajax Cape Town Actif 129 / 142 40% 1 30.07.2027 -
Jari Vandeputte Cremonese Actif 128 / 128 40% 1 29.07.2027 -
Thierry Rendall Correia Venezia Actif 157 / 146 40% 1 29.07.2027 -
Michael Baidoo Plymouth Argyle Actif 131 / 137 40% 2 28.07.2027 -
Jay Stansfield Birmingham Actif 130 / 139 40% 1 28.07.2027 -
Juan Morán Godoy Cruz Actif 125 / 110 40% 2 27.07.2027 -
Marco Oroná Antofagasta Actif 119 / 105 40% 1 27.07.2027 -
Agus Medina Albacete Actif 131 / 128 40% 1 23.07.2027 -
Adnan Januzaj KAA Gent Actif 126 / 137 40% 1 22.07.2027 -
Anton Kade FC Augsburg Actif 128 / 138 40% 1 20.07.2027 -
Mama Baldé Stade Brestois Actif 141 / 139 40% 1 20.07.2027 -
Amir Murillo Besiktas Actif 131 / 135 40% 1 17.07.2027 -
Wesley Saïd RC Lens Actif 149 / 140 40% 1 17.07.2027 -
Diogo Gonçalves Konyaspor Actif 114 / 143 40% 1 16.07.2027 -
Alessio Zerbin Frosinone Actif 127 / 134 40% 1 15.07.2027 -
Javi Martínez Eibar Actif 127 / 138 40% 1 14.07.2027 -
Jeremy Toljan Levante Actif 140 / 128 40% 1 13.07.2027 -
Samuele Birindelli Monza Actif 118 / 123 40% 1 13.07.2027 -
Martim Cunha Porto Actif 108 / 104 40% 4 10.07.2027 -
Lucio Cruceño Godoy Cruz Actif 93 / 111 40% 1 10.07.2027 -
Dylan Gorosito Boca Juniors Actif 97 / 123 40% 2 07.07.2027 -
Valente Pierani Estudiantes Actif 131 / 119 40% 1 07.07.2027 -
Ezra Mayers West Ham United Actif 125 / 129 40% 1 06.07.2027 -
Yassine Khalifi Charleroi Actif 114 / 118 40% 1 06.07.2027 -
Brian Rodríguez Club America Actif 125 / 127 40% 1 28.06.2027 -
Jordi Cortizo Leon Actif 150 / 125 40% 1 28.06.2027 -
Ignacio Isla Unión de Santa Fe Négociation 122 / 123 40% 1 08.06.2027 -
Augusto Bando Ascoli Actif 95 / 111 40% 1 08.06.2027 -
Kaick FC Dallas Actif 109 / 120 40% 2 07.06.2027 -
Harley Mills Peterborough United Actif 101 / 100 40% 1 07.06.2027 -
Alejandro Almaraz Oviedo Actif 107 / 123 40% 1 04.06.2027 -
Agustín Alvez San Lorenzo Actif 98 / 96 40% 1 03.06.2027 -
Florin Bancu Utrecht Actif 124 / 124 68% 1 01.06.2027 Approuver
Edgar Badía Cultural Leonesa Actif 121 / 126 48% 1 01.06.2027 -
Ruan Alanyaspor Actif 142 / 128 40% 3 30.01.2027 -
Matheus Alves CSKA Moscow Actif 141 / 135 40% 1 30.01.2027 -
Diego Gaitán Maipú Actif 95 / 104 40% 1 29.01.2027 -
Santiago Grella Unión de Santa Fe Actif 107 / 104 40% 2 27.01.2027 -
Joaquin Seys Club Brugge Actif 122 / 132 40% 2 27.01.2027 -
Noah Streit CF Montreal Actif 124 / 110 40% 2 24.01.2027 -
Lucas Agazzi Benfica Actif 109 / 122 40% 1 23.01.2027 -
Arkaitz Mariezkurrena Real Sociedad Actif 116 / 124 40% 1 23.01.2027 -
Juan Pablo De la Reta Maipú Actif 126 / 114 40% 2 20.01.2027 -
Simphiwe Selepe Orlando Pirates Actif 125 / 122 40% 1 19.01.2027 -
Pablo Moreno Guadalajara Actif 120 / 120 66% 1 18.01.2027 Approuver
Kyriani Sabbe Club Brugge Actif 125 / 116 40% 1 15.01.2027 -
Dani Díaz Real Sociedad Actif 105 / 109 40% 1 14.01.2027 -
Adrián Parra Udinese Actif 117 / 117 67% 1 11.01.2027 Approuver
Sean Fusire Sheffield Wednesday Actif 92 / 107 40% 1 11.01.2027 -
Tristan Degreef Anderlecht Actif 122 / 127 40% 2 10.01.2027 -
Andile Zwane RC Lens Actif 124 / 124 67% 1 07.01.2027 Approuver
Paulo Cardoso Sporting CP Actif 103 / 95 40% 1 07.01.2027 -
Luca Raffaelli Instituto Actif 103 / 101 40% 1 06.01.2027 -
Jones El-Abdellaoui Celta Actif 143 / 135 40% 1 03.01.2027 -
Maximiliano Badur Morón Actif 101 / 98 40% 1 01.01.2027 -
Diogo Guzmán Montevideo City Torque Actif 112 / 131 40% 1 01.01.2027 -
Ignacio Perruzzi San Lorenzo Actif 109 / 131 40% 1 31.08.2026 Plus d'infos
Alexander Lyng SonderjyskE Actif 112 / 117 40% 1 28.08.2026 -
Javier Mena Villarreal Actif 109 / 126 40% 1 28.08.2026 -
Halam Loboa Osasuna Actif 102 / 122 40% 1 26.08.2026 -
Jerónimo Russo Newell's Old Boys Actif 86 / 87 40% 1 26.08.2026 -
Mohamadou Kanté West Ham United Actif 109 / 120 40% 1 25.08.2026 -
Jonathan Asp-Jensen Deportivo La Coruña Actif 128 / 128 40% 1 25.08.2026 -
Marvin Kaleta Rotherham United Actif 111 / 99 40% 1 18.08.2026 -
Adam Bareiro Boca Juniors Actif 147 / 134 40% 1 01.08.2026 -